sensor_id;sensor_type;location;lat;lon;timestamp;P1;durP1;ratioP1;P2;durP2;ratioP2
18159;SDS011;9205;52.032;4.314;2023-04-24T00:02:06;3.37;;;1.10;;
18159;SDS011;9205;52.032;4.314;2023-04-24T00:04:36;1.60;;;1.20;;
18159;SDS011;9205;52.032;4.314;2023-04-24T00:07:05;1.20;;;1.10;;
18159;SDS011;9205;52.032;4.314;2023-04-24T00:09:32;2.40;;;1.10;;
18159;SDS011;9205;52.032;4.314;2023-04-24T00:11:59;1.20;;;1.10;;
18159;SDS011;9205;52.032;4.314;2023-04-24T00:14:30;2.37;;;1.20;;
18159;SDS011;9205;52.032;4.314;2023-04-24T00:16:57;5.10;;;1.40;;
18159;SDS011;9205;52.032;4.314;2023-04-24T00:19:25;2.10;;;1.33;;
18159;SDS011;9205;52.032;4.314;2023-04-24T00:21:52;5.90;;;1.47;;
18159;SDS011;9205;52.032;4.314;2023-04-24T00:24:19;3.77;;;1.63;;
18159;SDS011;9205;52.032;4.314;2023-04-24T00:26:47;1.77;;;1.30;;
18159;SDS011;9205;52.032;4.314;2023-04-24T00:29:14;4.33;;;1.30;;
18159;SDS011;9205;52.032;4.314;2023-04-24T00:31:43;5.40;;;1.30;;
18159;SDS011;9205;52.032;4.314;2023-04-24T00:34:10;6.07;;;1.20;;
18159;SDS011;9205;52.032;4.314;2023-04-24T00:36:37;1.60;;;1.10;;
18159;SDS011;9205;52.032;4.314;2023-04-24T00:39:05;1.97;;;1.00;;
18159;SDS011;9205;52.032;4.314;2023-04-24T00:41:33;1.20;;;1.00;;
18159;SDS011;9205;52.032;4.314;2023-04-24T00:44:01;2.10;;;1.07;;
18159;SDS011;9205;52.032;4.314;2023-04-24T00:46:28;3.07;;;1.23;;
18159;SDS011;9205;52.032;4.314;2023-04-24T00:49:00;3.10;;;1.40;;
18159;SDS011;9205;52.032;4.314;2023-04-24T00:51:27;2.03;;;1.17;;
18159;SDS011;9205;52.032;4.314;2023-04-24T00:53:56;2.93;;;0.90;;
18159;SDS011;9205;52.032;4.314;2023-04-24T00:56:23;1.07;;;0.90;;
18159;SDS011;9205;52.032;4.314;2023-04-24T00:58:50;1.47;;;0.87;;
18159;SDS011;9205;52.032;4.314;2023-04-24T01:01:18;1.37;;;1.00;;
18159;SDS011;9205;52.032;4.314;2023-04-24T01:03:47;3.30;;;1.20;;
18159;SDS011;9205;52.032;4.314;2023-04-24T01:06:19;1.90;;;1.20;;
18159;SDS011;9205;52.032;4.314;2023-04-24T01:08:48;1.20;;;1.10;;
18159;SDS011;9205;52.032;4.314;2023-04-24T01:11:16;2.17;;;1.20;;
18159;SDS011;9205;52.032;4.314;2023-04-24T01:13:44;2.07;;;1.30;;
18159;SDS011;9205;52.032;4.314;2023-04-24T01:16:12;1.50;;;1.20;;
18159;SDS011;9205;52.032;4.314;2023-04-24T01:18:40;3.50;;;1.40;;
18159;SDS011;9205;52.032;4.314;2023-04-24T01:21:07;1.77;;;1.40;;
18159;SDS011;9205;52.032;4.314;2023-04-24T01:23:42;2.73;;;1.20;;
18159;SDS011;9205;52.032;4.314;2023-04-24T01:26:10;2.67;;;1.10;;
18159;SDS011;9205;52.032;4.314;2023-04-24T01:28:38;1.33;;;1.20;;
18159;SDS011;9205;52.032;4.314;2023-04-24T01:31:05;3.67;;;1.30;;
18159;SDS011;9205;52.032;4.314;2023-04-24T01:33:33;1.30;;;1.00;;
18159;SDS011;9205;52.032;4.314;2023-04-24T01:36:02;2.03;;;0.97;;
18159;SDS011;9205;52.032;4.314;2023-04-24T01:38:30;1.10;;;1.00;;
18159;SDS011;9205;52.032;4.314;2023-04-24T01:41:00;4.37;;;1.60;;
18159;SDS011;9205;52.032;4.314;2023-04-24T01:43:27;1.97;;;1.27;;
18159;SDS011;9205;52.032;4.314;2023-04-24T01:45:57;1.43;;;0.90;;
18159;SDS011;9205;52.032;4.314;2023-04-24T01:48:24;1.40;;;1.17;;
18159;SDS011;9205;52.032;4.314;2023-04-24T01:50:51;1.80;;;1.30;;
18159;SDS011;9205;52.032;4.314;2023-04-24T01:53:19;1.00;;;0.80;;
18159;SDS011;9205;52.032;4.314;2023-04-24T01:55:46;1.00;;;0.90;;
18159;SDS011;9205;52.032;4.314;2023-04-24T01:58:15;1.87;;;0.93;;
18159;SDS011;9205;52.032;4.314;2023-04-24T02:00:43;1.00;;;0.90;;
18159;SDS011;9205;52.032;4.314;2023-04-24T02:03:10;2.90;;;1.00;;
18159;SDS011;9205;52.032;4.314;2023-04-24T02:05:37;0.93;;;0.87;;
18159;SDS011;9205;52.032;4.314;2023-04-24T02:08:04;0.93;;;0.93;;
18159;SDS011;9205;52.032;4.314;2023-04-24T02:10:31;0.80;;;0.80;;
18159;SDS011;9205;52.032;4.314;2023-04-24T02:12:58;1.10;;;1.00;;
18159;SDS011;9205;52.032;4.314;2023-04-24T02:15:27;2.70;;;0.90;;
18159;SDS011;9205;52.032;4.314;2023-04-24T02:17:55;2.30;;;0.70;;
18159;SDS011;9205;52.032;4.314;2023-04-24T02:20:22;1.00;;;0.90;;
18159;SDS011;9205;52.032;4.314;2023-04-24T02:22:52;1.87;;;0.90;;
18159;SDS011;9205;52.032;4.314;2023-04-24T02:25:19;2.63;;;0.80;;
18159;SDS011;9205;52.032;4.314;2023-04-24T02:27:46;0.80;;;0.80;;
18159;SDS011;9205;52.032;4.314;2023-04-24T02:30:13;5.73;;;0.60;;
18159;SDS011;9205;52.032;4.314;2023-04-24T02:32:42;0.80;;;0.63;;
18159;SDS011;9205;52.032;4.314;2023-04-24T02:35:10;1.07;;;0.60;;
18159;SDS011;9205;52.032;4.314;2023-04-24T02:37:37;2.47;;;0.60;;
18159;SDS011;9205;52.032;4.314;2023-04-24T02:40:05;0.77;;;0.77;;
18159;SDS011;9205;52.032;4.314;2023-04-24T02:42:34;1.00;;;0.80;;
18159;SDS011;9205;52.032;4.314;2023-04-24T02:45:01;1.80;;;0.80;;
18159;SDS011;9205;52.032;4.314;2023-04-24T02:47:29;1.67;;;0.80;;
18159;SDS011;9205;52.032;4.314;2023-04-24T02:49:57;1.63;;;1.20;;
18159;SDS011;9205;52.032;4.314;2023-04-24T02:52:25;3.17;;;0.87;;
18159;SDS011;9205;52.032;4.314;2023-04-24T02:54:54;2.93;;;0.70;;
18159;SDS011;9205;52.032;4.314;2023-04-24T02:57:21;1.23;;;0.80;;
18159;SDS011;9205;52.032;4.314;2023-04-24T02:59:48;1.67;;;0.87;;
18159;SDS011;9205;52.032;4.314;2023-04-24T03:02:15;3.70;;;0.80;;
18159;SDS011;9205;52.032;4.314;2023-04-24T03:04:42;1.43;;;0.80;;
18159;SDS011;9205;52.032;4.314;2023-04-24T03:07:11;1.20;;;0.73;;
18159;SDS011;9205;52.032;4.314;2023-04-24T03:09:39;1.03;;;0.60;;
18159;SDS011;9205;52.032;4.314;2023-04-24T03:12:07;0.60;;;0.60;;
18159;SDS011;9205;52.032;4.314;2023-04-24T03:14:35;0.77;;;0.70;;
18159;SDS011;9205;52.032;4.314;2023-04-24T03:17:02;0.87;;;0.70;;
18159;SDS011;9205;52.032;4.314;2023-04-24T03:19:29;1.80;;;0.70;;
18159;SDS011;9205;52.032;4.314;2023-04-24T03:22:02;0.87;;;0.70;;
18159;SDS011;9205;52.032;4.314;2023-04-24T03:24:31;0.50;;;0.50;;
18159;SDS011;9205;52.032;4.314;2023-04-24T03:26:59;6.80;;;1.20;;
18159;SDS011;9205;52.032;4.314;2023-04-24T03:29:42;0.60;;;0.60;;
18159;SDS011;9205;52.032;4.314;2023-04-24T03:32:10;1.00;;;0.67;;
18159;SDS011;9205;52.032;4.314;2023-04-24T03:34:37;2.97;;;0.80;;
18159;SDS011;9205;52.032;4.314;2023-04-24T03:37:06;3.13;;;0.87;;
18159;SDS011;9205;52.032;4.314;2023-04-24T03:39:38;2.30;;;1.17;;
18159;SDS011;9205;52.032;4.314;2023-04-24T03:42:05;2.07;;;0.80;;
18159;SDS011;9205;52.032;4.314;2023-04-24T03:44:44;1.20;;;0.80;;
18159;SDS011;9205;52.032;4.314;2023-04-24T03:47:11;0.70;;;0.70;;
18159;SDS011;9205;52.032;4.314;2023-04-24T03:49:39;1.97;;;0.60;;
18159;SDS011;9205;52.032;4.314;2023-04-24T03:52:07;2.37;;;1.10;;
18159;SDS011;9205;52.032;4.314;2023-04-24T03:54:34;0.70;;;0.70;;
18159;SDS011;9205;52.032;4.314;2023-04-24T03:57:03;1.77;;;0.80;;
18159;SDS011;9205;52.032;4.314;2023-04-24T03:59:32;1.13;;;0.80;;
18159;SDS011;9205;52.032;4.314;2023-04-24T04:02:11;2.13;;;1.00;;
18159;SDS011;9205;52.032;4.314;2023-04-24T04:04:38;4.13;;;1.30;;
18159;SDS011;9205;52.032;4.314;2023-04-24T04:07:05;3.47;;;1.40;;
18159;SDS011;9205;52.032;4.314;2023-04-24T04:09:33;2.63;;;1.80;;
18159;SDS011;9205;52.032;4.314;2023-04-24T04:12:00;6.00;;;2.20;;
18159;SDS011;9205;52.032;4.314;2023-04-24T04:14:32;5.27;;;2.30;;
18159;SDS011;9205;52.032;4.314;2023-04-24T04:16:59;6.00;;;2.70;;
18159;SDS011;9205;52.032;4.314;2023-04-24T04:19:27;5.97;;;2.80;;
18159;SDS011;9205;52.032;4.314;2023-04-24T04:21:54;7.27;;;2.23;;
18159;SDS011;9205;52.032;4.314;2023-04-24T04:24:28;8.03;;;2.70;;
18159;SDS011;9205;52.032;4.314;2023-04-24T04:26:57;6.40;;;2.30;;
18159;SDS011;9205;52.032;4.314;2023-04-24T04:29:34;6.27;;;2.90;;
18159;SDS011;9205;52.032;4.314;2023-04-24T04:32:04;6.27;;;2.70;;
18159;SDS011;9205;52.032;4.314;2023-04-24T04:34:31;9.20;;;3.00;;
18159;SDS011;9205;52.032;4.314;2023-04-24T04:36:59;10.87;;;4.13;;
18159;SDS011;9205;52.032;4.314;2023-04-24T04:39:38;18.00;;;4.17;;
18159;SDS011;9205;52.032;4.314;2023-04-24T04:42:10;8.43;;;4.53;;
18159;SDS011;9205;52.032;4.314;2023-04-24T04:44:42;8.60;;;4.50;;
18159;SDS011;9205;52.032;4.314;2023-04-24T04:47:15;12.87;;;4.93;;
18159;SDS011;9205;52.032;4.314;2023-04-24T04:49:43;13.07;;;5.53;;
18159;SDS011;9205;52.032;4.314;2023-04-24T04:52:17;16.20;;;5.30;;
18159;SDS011;9205;52.032;4.314;2023-04-24T04:54:47;13.53;;;4.90;;
18159;SDS011;9205;52.032;4.314;2023-04-24T04:57:15;10.60;;;4.40;;
18159;SDS011;9205;52.032;4.314;2023-04-24T04:59:44;9.47;;;4.27;;
18159;SDS011;9205;52.032;4.314;2023-04-24T05:02:20;15.50;;;4.67;;
18159;SDS011;9205;52.032;4.314;2023-04-24T05:04:47;9.87;;;3.87;;
18159;SDS011;9205;52.032;4.314;2023-04-24T05:07:14;14.20;;;4.20;;
18159;SDS011;9205;52.032;4.314;2023-04-24T05:09:46;10.90;;;4.73;;
18159;SDS011;9205;52.032;4.314;2023-04-24T05:12:13;9.80;;;4.87;;
18159;SDS011;9205;52.032;4.314;2023-04-24T05:14:50;13.37;;;5.00;;
18159;SDS011;9205;52.032;4.314;2023-04-24T05:17:19;8.60;;;4.23;;
18159;SDS011;9205;52.032;4.314;2023-04-24T05:19:47;10.03;;;4.53;;
18159;SDS011;9205;52.032;4.314;2023-04-24T05:22:15;8.37;;;4.07;;
18159;SDS011;9205;52.032;4.314;2023-04-24T05:24:48;14.90;;;4.37;;
18159;SDS011;9205;52.032;4.314;2023-04-24T05:27:33;17.97;;;4.30;;
18159;SDS011;9205;52.032;4.314;2023-04-24T05:30:06;9.93;;;4.50;;
18159;SDS011;9205;52.032;4.314;2023-04-24T05:32:34;20.00;;;5.13;;
18159;SDS011;9205;52.032;4.314;2023-04-24T05:35:02;8.13;;;4.40;;
18159;SDS011;9205;52.032;4.314;2023-04-24T05:37:31;10.27;;;4.43;;
18159;SDS011;9205;52.032;4.314;2023-04-24T05:39:59;13.57;;;5.13;;
18159;SDS011;9205;52.032;4.314;2023-04-24T05:42:27;12.23;;;4.30;;
18159;SDS011;9205;52.032;4.314;2023-04-24T05:44:56;10.57;;;3.90;;
18159;SDS011;9205;52.032;4.314;2023-04-24T05:47:24;11.10;;;3.90;;
18159;SDS011;9205;52.032;4.314;2023-04-24T05:49:52;10.80;;;3.50;;
18159;SDS011;9205;52.032;4.314;2023-04-24T05:52:20;18.23;;;3.77;;
18159;SDS011;9205;52.032;4.314;2023-04-24T05:54:48;12.17;;;3.20;;
18159;SDS011;9205;52.032;4.314;2023-04-24T05:57:20;16.87;;;3.40;;
18159;SDS011;9205;52.032;4.314;2023-04-24T05:59:51;10.37;;;2.80;;
18159;SDS011;9205;52.032;4.314;2023-04-24T06:02:20;14.40;;;2.90;;
18159;SDS011;9205;52.032;4.314;2023-04-24T06:04:49;10.23;;;3.27;;
18159;SDS011;9205;52.032;4.314;2023-04-24T06:07:16;11.93;;;3.00;;
18159;SDS011;9205;52.032;4.314;2023-04-24T06:09:44;8.67;;;3.37;;
18159;SDS011;9205;52.032;4.314;2023-04-24T06:12:12;6.33;;;2.57;;
18159;SDS011;9205;52.032;4.314;2023-04-24T06:15:08;10.00;;;3.07;;
18159;SDS011;9205;52.032;4.314;2023-04-24T06:18:02;14.50;;;3.00;;
18159;SDS011;9205;52.032;4.314;2023-04-24T06:20:31;5.80;;;2.27;;
18159;SDS011;9205;52.032;4.314;2023-04-24T06:23:00;15.43;;;3.10;;
18159;SDS011;9205;52.032;4.314;2023-04-24T06:25:27;20.80;;;3.20;;
18159;SDS011;9205;52.032;4.314;2023-04-24T06:27:55;15.47;;;3.23;;
18159;SDS011;9205;52.032;4.314;2023-04-24T06:30:23;14.40;;;2.60;;
18159;SDS011;9205;52.032;4.314;2023-04-24T06:32:50;8.07;;;2.70;;
18159;SDS011;9205;52.032;4.314;2023-04-24T06:35:17;12.20;;;3.07;;
18159;SDS011;9205;52.032;4.314;2023-04-24T06:37:46;11.90;;;3.10;;
18159;SDS011;9205;52.032;4.314;2023-04-24T06:40:13;11.17;;;2.87;;
18159;SDS011;9205;52.032;4.314;2023-04-24T06:42:40;23.10;;;3.17;;
18159;SDS011;9205;52.032;4.314;2023-04-24T06:45:08;11.83;;;2.97;;
18159;SDS011;9205;52.032;4.314;2023-04-24T06:47:36;20.60;;;2.63;;
18159;SDS011;9205;52.032;4.314;2023-04-24T06:50:03;9.43;;;2.30;;
18159;SDS011;9205;52.032;4.314;2023-04-24T06:52:32;12.33;;;2.13;;
18159;SDS011;9205;52.032;4.314;2023-04-24T06:55:01;10.77;;;2.03;;
18159;SDS011;9205;52.032;4.314;2023-04-24T06:57:28;10.93;;;1.90;;
18159;SDS011;9205;52.032;4.314;2023-04-24T06:59:56;12.17;;;2.13;;
18159;SDS011;9205;52.032;4.314;2023-04-24T07:02:23;7.70;;;2.17;;
18159;SDS011;9205;52.032;4.314;2023-04-24T07:04:51;8.97;;;2.10;;
18159;SDS011;9205;52.032;4.314;2023-04-24T07:07:18;12.83;;;2.40;;
18159;SDS011;9205;52.032;4.314;2023-04-24T07:09:46;11.70;;;2.50;;
18159;SDS011;9205;52.032;4.314;2023-04-24T07:12:15;12.80;;;2.27;;
18159;SDS011;9205;52.032;4.314;2023-04-24T07:14:45;10.43;;;1.90;;
18159;SDS011;9205;52.032;4.314;2023-04-24T07:17:13;12.13;;;2.07;;
18159;SDS011;9205;52.032;4.314;2023-04-24T07:19:41;8.67;;;2.00;;
18159;SDS011;9205;52.032;4.314;2023-04-24T07:22:08;6.73;;;1.83;;
18159;SDS011;9205;52.032;4.314;2023-04-24T07:24:36;7.00;;;1.60;;
18159;SDS011;9205;52.032;4.314;2023-04-24T07:27:04;13.23;;;2.47;;
18159;SDS011;9205;52.032;4.314;2023-04-24T07:29:32;10.07;;;2.30;;
18159;SDS011;9205;52.032;4.314;2023-04-24T07:32:00;8.20;;;1.90;;
18159;SDS011;9205;52.032;4.314;2023-04-24T07:34:28;6.77;;;1.93;;
18159;SDS011;9205;52.032;4.314;2023-04-24T07:36:55;14.70;;;2.30;;
18159;SDS011;9205;52.032;4.314;2023-04-24T07:39:22;7.30;;;1.90;;
18159;SDS011;9205;52.032;4.314;2023-04-24T07:41:51;4.83;;;2.30;;
18159;SDS011;9205;52.032;4.314;2023-04-24T07:44:18;15.93;;;2.50;;
18159;SDS011;9205;52.032;4.314;2023-04-24T07:46:46;12.70;;;2.20;;
18159;SDS011;9205;52.032;4.314;2023-04-24T07:49:14;13.40;;;2.07;;
18159;SDS011;9205;52.032;4.314;2023-04-24T07:51:41;5.17;;;1.57;;
18159;SDS011;9205;52.032;4.314;2023-04-24T07:54:08;16.33;;;2.03;;
18159;SDS011;9205;52.032;4.314;2023-04-24T07:56:35;5.70;;;1.70;;
18159;SDS011;9205;52.032;4.314;2023-04-24T07:59:04;8.17;;;1.83;;
18159;SDS011;9205;52.032;4.314;2023-04-24T08:01:31;3.47;;;1.70;;
18159;SDS011;9205;52.032;4.314;2023-04-24T08:03:59;8.73;;;1.80;;
18159;SDS011;9205;52.032;4.314;2023-04-24T08:06:27;6.27;;;1.70;;
18159;SDS011;9205;52.032;4.314;2023-04-24T08:08:55;8.60;;;2.03;;
18159;SDS011;9205;52.032;4.314;2023-04-24T08:11:23;6.83;;;1.70;;
18159;SDS011;9205;52.032;4.314;2023-04-24T08:13:50;9.30;;;1.53;;
18159;SDS011;9205;52.032;4.314;2023-04-24T08:16:18;5.70;;;1.40;;
18159;SDS011;9205;52.032;4.314;2023-04-24T08:18:45;6.73;;;1.37;;
18159;SDS011;9205;52.032;4.314;2023-04-24T08:21:13;3.00;;;1.40;;
18159;SDS011;9205;52.032;4.314;2023-04-24T08:23:42;5.77;;;1.50;;
18159;SDS011;9205;52.032;4.314;2023-04-24T08:26:09;8.90;;;1.57;;
18159;SDS011;9205;52.032;4.314;2023-04-24T08:28:37;7.03;;;1.20;;
18159;SDS011;9205;52.032;4.314;2023-04-24T08:31:04;2.53;;;0.97;;
18159;SDS011;9205;52.032;4.314;2023-04-24T08:33:32;6.83;;;1.60;;
18159;SDS011;9205;52.032;4.314;2023-04-24T08:36:00;3.03;;;1.40;;
18159;SDS011;9205;52.032;4.314;2023-04-24T08:38:29;2.57;;;1.17;;
18159;SDS011;9205;52.032;4.314;2023-04-24T08:40:57;4.13;;;1.30;;
18159;SDS011;9205;52.032;4.314;2023-04-24T08:43:26;5.33;;;1.43;;
18159;SDS011;9205;52.032;4.314;2023-04-24T08:45:55;3.50;;;1.20;;
18159;SDS011;9205;52.032;4.314;2023-04-24T08:48:24;2.63;;;0.90;;
18159;SDS011;9205;52.032;4.314;2023-04-24T08:50:53;2.33;;;0.90;;
18159;SDS011;9205;52.032;4.314;2023-04-24T08:53:20;7.27;;;1.20;;
18159;SDS011;9205;52.032;4.314;2023-04-24T08:55:51;4.80;;;1.10;;
18159;SDS011;9205;52.032;4.314;2023-04-24T08:58:21;1.13;;;0.93;;
18159;SDS011;9205;52.032;4.314;2023-04-24T09:00:52;2.43;;;0.80;;
18159;SDS011;9205;52.032;4.314;2023-04-24T09:03:21;1.73;;;1.00;;
18159;SDS011;9205;52.032;4.314;2023-04-24T09:05:50;2.87;;;0.80;;
18159;SDS011;9205;52.032;4.314;2023-04-24T09:08:19;3.27;;;0.90;;
18159;SDS011;9205;52.032;4.314;2023-04-24T09:10:52;5.17;;;1.10;;
18159;SDS011;9205;52.032;4.314;2023-04-24T09:13:19;2.50;;;1.20;;
18159;SDS011;9205;52.032;4.314;2023-04-24T09:15:47;3.63;;;0.90;;
18159;SDS011;9205;52.032;4.314;2023-04-24T09:18:14;1.77;;;1.20;;
18159;SDS011;9205;52.032;4.314;2023-04-24T09:20:57;6.07;;;1.00;;
18159;SDS011;9205;52.032;4.314;2023-04-24T09:23:27;5.73;;;1.10;;
18159;SDS011;9205;52.032;4.314;2023-04-24T09:25:56;6.47;;;1.00;;
18159;SDS011;9205;52.032;4.314;2023-04-24T09:28:25;2.03;;;0.80;;
18159;SDS011;9205;52.032;4.314;2023-04-24T09:31:02;2.40;;;0.80;;
18159;SDS011;9205;52.032;4.314;2023-04-24T09:33:32;5.20;;;0.90;;
18159;SDS011;9205;52.032;4.314;2023-04-24T09:36:00;2.40;;;1.13;;
18159;SDS011;9205;52.032;4.314;2023-04-24T09:38:31;1.57;;;0.90;;
18159;SDS011;9205;52.032;4.314;2023-04-24T09:41:02;1.87;;;1.30;;
18159;SDS011;9205;52.032;4.314;2023-04-24T09:43:31;6.07;;;0.90;;
18159;SDS011;9205;52.032;4.314;2023-04-24T09:46:05;5.73;;;1.37;;
18159;SDS011;9205;52.032;4.314;2023-04-24T09:48:35;5.93;;;0.90;;
18159;SDS011;9205;52.032;4.314;2023-04-24T09:51:04;4.13;;;1.10;;
18159;SDS011;9205;52.032;4.314;2023-04-24T09:53:35;2.43;;;0.83;;
18159;SDS011;9205;52.032;4.314;2023-04-24T09:56:08;3.57;;;1.00;;
18159;SDS011;9205;52.032;4.314;2023-04-24T09:58:37;2.20;;;0.80;;
18159;SDS011;9205;52.032;4.314;2023-04-24T10:01:05;3.53;;;0.77;;
18159;SDS011;9205;52.032;4.314;2023-04-24T10:03:32;5.07;;;1.10;;
18159;SDS011;9205;52.032;4.314;2023-04-24T10:06:00;8.23;;;1.17;;
18159;SDS011;9205;52.032;4.314;2023-04-24T10:08:33;6.53;;;1.50;;
18159;SDS011;9205;52.032;4.314;2023-04-24T10:11:01;9.87;;;0.97;;
18159;SDS011;9205;52.032;4.314;2023-04-24T10:13:30;3.33;;;1.20;;
18159;SDS011;9205;52.032;4.314;2023-04-24T10:16:00;4.93;;;1.00;;
18159;SDS011;9205;52.032;4.314;2023-04-24T10:18:29;4.27;;;0.90;;
18159;SDS011;9205;52.032;4.314;2023-04-24T10:20:57;5.30;;;1.10;;
18159;SDS011;9205;52.032;4.314;2023-04-24T10:23:27;14.73;;;2.03;;
18159;SDS011;9205;52.032;4.314;2023-04-24T10:25:56;4.93;;;1.17;;
18159;SDS011;9205;52.032;4.314;2023-04-24T10:28:25;5.97;;;1.10;;
18159;SDS011;9205;52.032;4.314;2023-04-24T10:30:56;1.70;;;0.90;;
18159;SDS011;9205;52.032;4.314;2023-04-24T10:33:24;5.27;;;1.40;;
18159;SDS011;9205;52.032;4.314;2023-04-24T10:35:53;11.70;;;1.00;;
18159;SDS011;9205;52.032;4.314;2023-04-24T10:38:22;4.47;;;1.10;;
18159;SDS011;9205;52.032;4.314;2023-04-24T10:40:57;3.90;;;1.10;;
18159;SDS011;9205;52.032;4.314;2023-04-24T10:43:34;6.97;;;1.60;;
18159;SDS011;9205;52.032;4.314;2023-04-24T10:46:03;4.60;;;1.40;;
18159;SDS011;9205;52.032;4.314;2023-04-24T10:48:33;2.77;;;1.20;;
18159;SDS011;9205;52.032;4.314;2023-04-24T10:51:00;2.97;;;0.70;;
18159;SDS011;9205;52.032;4.314;2023-04-24T10:53:29;0.50;;;0.50;;
18159;SDS011;9205;52.032;4.314;2023-04-24T10:55:57;4.27;;;0.83;;
18159;SDS011;9205;52.032;4.314;2023-04-24T10:58:35;3.33;;;0.70;;
18159;SDS011;9205;52.032;4.314;2023-04-24T11:01:06;1.90;;;0.53;;
18159;SDS011;9205;52.032;4.314;2023-04-24T11:03:34;4.30;;;0.80;;
18159;SDS011;9205;52.032;4.314;2023-04-24T11:06:03;3.93;;;1.00;;
18159;SDS011;9205;52.032;4.314;2023-04-24T11:08:37;2.50;;;0.70;;
18159;SDS011;9205;52.032;4.314;2023-04-24T11:11:09;3.83;;;0.83;;
18159;SDS011;9205;52.032;4.314;2023-04-24T11:16:34;1.33;;;0.70;;
18159;SDS011;9205;52.032;4.314;2023-04-24T11:19:05;4.60;;;0.97;;
18159;SDS011;9205;52.032;4.314;2023-04-24T11:21:41;2.73;;;0.90;;
18159;SDS011;9205;52.032;4.314;2023-04-24T11:24:23;5.93;;;1.10;;
18159;SDS011;9205;52.032;4.314;2023-04-24T11:26:53;5.63;;;0.90;;
18159;SDS011;9205;52.032;4.314;2023-04-24T11:29:22;2.20;;;0.80;;
18159;SDS011;9205;52.032;4.314;2023-04-24T11:32:15;6.10;;;1.00;;
18159;SDS011;9205;52.032;4.314;2023-04-24T11:34:45;5.13;;;0.90;;
18159;SDS011;9205;52.032;4.314;2023-04-24T11:37:14;4.40;;;1.27;;
18159;SDS011;9205;52.032;4.314;2023-04-24T11:39:41;3.90;;;1.10;;
18159;SDS011;9205;52.032;4.314;2023-04-24T11:42:09;7.43;;;1.20;;
18159;SDS011;9205;52.032;4.314;2023-04-24T11:44:36;3.27;;;0.87;;
18159;SDS011;9205;52.032;4.314;2023-04-24T11:47:04;8.23;;;1.80;;
18159;SDS011;9205;52.032;4.314;2023-04-24T11:49:34;9.97;;;1.27;;
18159;SDS011;9205;52.032;4.314;2023-04-24T11:52:03;3.80;;;1.60;;
18159;SDS011;9205;52.032;4.314;2023-04-24T11:54:31;7.30;;;1.53;;
18159;SDS011;9205;52.032;4.314;2023-04-24T11:56:58;9.27;;;1.40;;
18159;SDS011;9205;52.032;4.314;2023-04-24T11:59:25;7.13;;;1.50;;
18159;SDS011;9205;52.032;4.314;2023-04-24T12:01:52;9.90;;;1.20;;
18159;SDS011;9205;52.032;4.314;2023-04-24T12:04:20;6.63;;;1.30;;
18159;SDS011;9205;52.032;4.314;2023-04-24T12:07:00;6.80;;;1.43;;
18159;SDS011;9205;52.032;4.314;2023-04-24T12:09:28;7.50;;;1.40;;
18159;SDS011;9205;52.032;4.314;2023-04-24T12:12:07;5.50;;;1.50;;
18159;SDS011;9205;52.032;4.314;2023-04-24T12:14:41;8.40;;;1.53;;
18159;SDS011;9205;52.032;4.314;2023-04-24T12:17:10;6.87;;;1.83;;
18159;SDS011;9205;52.032;4.314;2023-04-24T12:19:37;6.13;;;1.77;;
18159;SDS011;9205;52.032;4.314;2023-04-24T12:22:12;6.47;;;1.53;;
18159;SDS011;9205;52.032;4.314;2023-04-24T12:24:56;4.80;;;1.53;;
18159;SDS011;9205;52.032;4.314;2023-04-24T12:27:40;6.87;;;1.83;;
18159;SDS011;9205;52.032;4.314;2023-04-24T12:30:10;5.03;;;1.47;;
18159;SDS011;9205;52.032;4.314;2023-04-24T12:32:41;4.40;;;1.87;;
18159;SDS011;9205;52.032;4.314;2023-04-24T12:35:09;9.00;;;2.10;;
18159;SDS011;9205;52.032;4.314;2023-04-24T12:37:38;9.70;;;2.30;;
18159;SDS011;9205;52.032;4.314;2023-04-24T12:40:09;11.83;;;1.90;;
18159;SDS011;9205;52.032;4.314;2023-04-24T12:42:42;7.37;;;2.40;;
18159;SDS011;9205;52.032;4.314;2023-04-24T12:45:10;5.27;;;1.73;;
18159;SDS011;9205;52.032;4.314;2023-04-24T12:47:38;8.30;;;1.80;;
18159;SDS011;9205;52.032;4.314;2023-04-24T12:50:08;12.60;;;1.50;;
18159;SDS011;9205;52.032;4.314;2023-04-24T12:52:37;7.23;;;2.13;;
18159;SDS011;9205;52.032;4.314;2023-04-24T12:55:07;6.30;;;1.70;;
18159;SDS011;9205;52.032;4.314;2023-04-24T12:57:36;8.93;;;1.30;;
18159;SDS011;9205;52.032;4.314;2023-04-24T13:00:06;6.07;;;1.90;;
18159;SDS011;9205;52.032;4.314;2023-04-24T13:02:35;11.77;;;2.00;;
18159;SDS011;9205;52.032;4.314;2023-04-24T13:05:05;7.60;;;1.90;;
18159;SDS011;9205;52.032;4.314;2023-04-24T13:07:33;11.63;;;1.97;;
18159;SDS011;9205;52.032;4.314;2023-04-24T13:10:01;11.03;;;2.27;;
18159;SDS011;9205;52.032;4.314;2023-04-24T13:12:29;8.97;;;2.17;;
18159;SDS011;9205;52.032;4.314;2023-04-24T13:14:57;11.40;;;2.17;;
18159;SDS011;9205;52.032;4.314;2023-04-24T13:17:25;9.33;;;1.93;;
18159;SDS011;9205;52.032;4.314;2023-04-24T13:19:53;5.47;;;1.73;;
18159;SDS011;9205;52.032;4.314;2023-04-24T13:22:21;7.87;;;1.60;;
18159;SDS011;9205;52.032;4.314;2023-04-24T13:24:49;9.07;;;2.00;;
18159;SDS011;9205;52.032;4.314;2023-04-24T13:27:17;4.53;;;1.80;;
18159;SDS011;9205;52.032;4.314;2023-04-24T13:29:45;4.77;;;1.47;;
18159;SDS011;9205;52.032;4.314;2023-04-24T13:32:12;6.07;;;1.50;;
18159;SDS011;9205;52.032;4.314;2023-04-24T13:34:39;4.67;;;1.77;;
18159;SDS011;9205;52.032;4.314;2023-04-24T13:37:07;9.90;;;1.77;;
18159;SDS011;9205;52.032;4.314;2023-04-24T13:39:35;7.27;;;1.70;;
18159;SDS011;9205;52.032;4.314;2023-04-24T13:42:02;4.10;;;1.97;;
18159;SDS011;9205;52.032;4.314;2023-04-24T13:44:31;4.90;;;1.77;;
18159;SDS011;9205;52.032;4.314;2023-04-24T13:46:59;8.87;;;2.00;;
18159;SDS011;9205;52.032;4.314;2023-04-24T13:49:26;5.50;;;1.97;;
18159;SDS011;9205;52.032;4.314;2023-04-24T13:51:54;9.13;;;1.97;;
18159;SDS011;9205;52.032;4.314;2023-04-24T13:54:22;7.27;;;1.97;;
18159;SDS011;9205;52.032;4.314;2023-04-24T13:56:50;10.40;;;2.27;;
18159;SDS011;9205;52.032;4.314;2023-04-24T13:59:19;7.00;;;2.10;;
18159;SDS011;9205;52.032;4.314;2023-04-24T14:01:48;10.37;;;2.20;;
18159;SDS011;9205;52.032;4.314;2023-04-24T14:04:15;7.07;;;2.23;;
18159;SDS011;9205;52.032;4.314;2023-04-24T14:06:43;8.13;;;2.23;;
18159;SDS011;9205;52.032;4.314;2023-04-24T14:09:10;10.03;;;2.10;;
18159;SDS011;9205;52.032;4.314;2023-04-24T14:11:38;8.20;;;1.93;;
18159;SDS011;9205;52.032;4.314;2023-04-24T14:14:05;5.93;;;1.90;;
18159;SDS011;9205;52.032;4.314;2023-04-24T14:16:32;6.23;;;1.70;;
18159;SDS011;9205;52.032;4.314;2023-04-24T14:19:01;5.50;;;2.13;;
18159;SDS011;9205;52.032;4.314;2023-04-24T14:21:30;8.57;;;2.40;;
18159;SDS011;9205;52.032;4.314;2023-04-24T14:23:57;11.23;;;2.20;;
18159;SDS011;9205;52.032;4.314;2023-04-24T14:26:24;8.60;;;2.33;;
18159;SDS011;9205;52.032;4.314;2023-04-24T14:28:52;8.20;;;2.33;;
18159;SDS011;9205;52.032;4.314;2023-04-24T14:31:20;9.33;;;2.37;;
18159;SDS011;9205;52.032;4.314;2023-04-24T14:33:47;7.03;;;2.07;;
18159;SDS011;9205;52.032;4.314;2023-04-24T14:36:15;9.33;;;2.03;;
18159;SDS011;9205;52.032;4.314;2023-04-24T14:38:43;5.03;;;1.67;;
18159;SDS011;9205;52.032;4.314;2023-04-24T14:41:10;12.77;;;2.67;;
18159;SDS011;9205;52.032;4.314;2023-04-24T14:43:37;9.00;;;2.30;;
18159;SDS011;9205;52.032;4.314;2023-04-24T14:46:05;4.13;;;1.60;;
18159;SDS011;9205;52.032;4.314;2023-04-24T14:48:32;8.77;;;2.10;;
18159;SDS011;9205;52.032;4.314;2023-04-24T14:51:00;4.67;;;1.83;;
18159;SDS011;9205;52.032;4.314;2023-04-24T14:53:28;7.83;;;2.20;;
18159;SDS011;9205;52.032;4.314;2023-04-24T14:55:55;10.43;;;2.03;;
18159;SDS011;9205;52.032;4.314;2023-04-24T14:58:23;5.17;;;1.80;;
18159;SDS011;9205;52.032;4.314;2023-04-24T15:00:50;5.43;;;2.30;;
18159;SDS011;9205;52.032;4.314;2023-04-24T15:03:19;6.03;;;2.10;;
18159;SDS011;9205;52.032;4.314;2023-04-24T15:05:47;6.53;;;2.47;;
18159;SDS011;9205;52.032;4.314;2023-04-24T15:08:14;6.40;;;2.20;;
18159;SDS011;9205;52.032;4.314;2023-04-24T15:10:42;9.83;;;2.50;;
18159;SDS011;9205;52.032;4.314;2023-04-24T15:13:10;9.23;;;2.30;;